Portada
METAR-TAF:

METAR-TAF

Aeropuertos :

Ushuaia, Argentina

Aeropuerto Internacional Malvinas Argentinas

latitud: 54-48S, longitud: 068-19W, altitud: 16 m

Observación

El informe se hizo hace 40 minutos, a las 20:00 UTC
Viento 6 kt del sur-suroeste
Temperatura 4°C
Humedad 70%
Presión 985 hPa
Visibilidad 10 km o más
Escasas nubes a una altura de 4500 ft

METAR: SAWH 242000Z 20006KT 9999 FEW045 04/M01 Q0985

Hora: 17:40 (20:40 UTC)

Pronóstico

El informe se hizo hace 3 horas y 40 minutos, a las 17:00 UTC
Pronóstico válido del 24 a las 18 UTC al 25 a las 18 UTC
Viento 10 kt del oeste-suroeste
Visibilidad 10 km o más
Cielo nuboso a una altura de 3000 ft
Cielo nuboso a una altura de 8000 ft
Evolucionando progresivamente
del 25 a las 06 UTC al 25 a las 08 UTC
Viento 15 kt del norte-noroeste con ráfagas de 30 kt

TAF: SAWH 241700Z 2418/2518 25010KT 9999 BKN030 BKN080 TX05/2419Z TNM01/2410Z BECMG 2506/2508 34015G30KT

Observaciones y pronósticos meteorológicos de más de 4000 aeropuertos (mensajes METAR y TAF).

Los puntos amarillos y rojos representan las estaciones disponibles.

Ponga el ratón en el punto deseado para ver el nombre de la estación.

Haga clic para ver las observaciones y los pronósticos meteorológicos.

Para cambiar el mapa : haga clic en los botones verdes con una cruz de color negro para hacer un zoom, en el botón verde con un guión para alejar o en las flechas verdes para mapas adyacentes.


METAR-TAF: